createdAt,value
2023-03-21T00:34:37.089Z,954.45
2023-03-21T00:36:18.000Z,954.42
2023-03-21T00:37:17.931Z,954.37
2023-03-21T00:38:17.915Z,954.4
2023-03-21T00:39:17.900Z,954.39
2023-03-21T00:40:27.792Z,954.39
2023-03-21T00:41:31.610Z,954.36
2023-03-21T04:45:46.399Z,953.8
2023-03-21T04:46:46.333Z,953.81
2023-03-21T04:47:46.305Z,953.85
2023-03-21T04:48:46.866Z,953.79
2023-03-21T04:49:46.850Z,953.82
2023-03-21T04:50:46.848Z,953.83
2023-03-21T04:51:46.818Z,953.88
2023-03-21T04:52:46.797Z,953.84
2023-03-21T04:53:46.781Z,953.84
2023-03-21T04:54:46.772Z,953.78
2023-03-21T04:55:46.753Z,953.76
2023-03-21T04:56:46.729Z,953.8
2023-03-21T04:57:46.714Z,953.81
2023-03-21T04:58:46.700Z,953.8
2023-03-21T04:59:46.683Z,953.81
2023-03-21T05:00:46.679Z,953.78
2023-03-21T05:01:46.675Z,953.74
2023-03-21T05:02:46.631Z,953.75
2023-03-21T05:03:46.637Z,953.73
2023-03-21T05:04:46.605Z,953.76
2023-03-21T05:05:46.585Z,953.7
2023-03-21T05:06:46.570Z,953.75
2023-03-21T05:07:46.560Z,953.66
2023-03-21T05:08:46.539Z,953.67
2023-03-21T05:09:46.521Z,953.67
2023-03-21T05:10:46.509Z,953.66
2023-03-21T05:11:46.490Z,953.67
2023-03-21T05:12:46.472Z,953.68
2023-03-21T05:13:46.469Z,953.65
2023-03-21T05:14:46.444Z,953.67
2023-03-21T05:15:46.425Z,953.7
2023-03-21T05:16:46.506Z,953.72
2023-03-21T05:17:46.421Z,953.65
2023-03-21T05:18:46.378Z,953.7
2023-03-21T05:19:46.366Z,953.69
2023-03-21T05:20:46.347Z,953.66
2023-03-21T05:21:46.336Z,953.66
2023-03-21T05:22:46.316Z,953.68
2023-03-21T05:23:46.302Z,953.68
2023-03-21T05:24:46.285Z,953.65
2023-03-21T05:25:46.284Z,953.67
2023-03-21T05:26:46.258Z,953.71
2023-03-21T05:27:46.243Z,953.7
2023-03-21T05:28:46.225Z,953.72
2023-03-21T05:29:46.209Z,953.73
2023-03-21T05:30:46.299Z,953.76
2023-03-21T05:31:46.195Z,953.73
2023-03-21T05:32:46.163Z,953.71
2023-03-21T05:33:46.188Z,953.71
2023-03-21T05:34:46.147Z,953.75
2023-03-21T05:35:46.177Z,953.72
2023-03-21T05:36:46.105Z,953.72
2023-03-21T05:37:46.098Z,953.73
2023-03-21T05:38:46.076Z,953.71
2023-03-21T05:39:46.058Z,953.73
2023-03-21T05:40:46.044Z,953.68
2023-03-21T05:41:46.041Z,953.67
2023-03-21T05:42:46.015Z,953.72
2023-03-21T05:43:45.998Z,953.73
2023-03-21T05:44:45.986Z,953.75
2023-03-21T05:45:45.978Z,953.72
2023-03-21T05:46:45.954Z,953.73
2023-03-21T05:47:45.949Z,953.72
2023-03-21T05:48:45.925Z,953.72
2023-03-21T05:49:45.928Z,953.7
2023-03-21T05:50:45.892Z,953.7
2023-03-21T05:51:45.874Z,953.73
2023-03-21T05:52:45.862Z,953.72
2023-03-21T05:53:45.845Z,953.72
2023-03-21T05:54:45.851Z,953.71
2023-03-21T05:55:45.816Z,953.73
2023-03-21T05:56:45.817Z,953.72
2023-03-21T05:57:45.789Z,953.75
2023-03-21T05:58:45.771Z,953.75
2023-03-21T05:59:45.757Z,953.8
2023-03-21T06:00:45.789Z,953.78
2023-03-21T06:01:45.737Z,953.78
2023-03-21T06:02:45.824Z,953.78
2023-03-21T06:03:45.745Z,953.8
2023-03-21T06:04:45.684Z,953.84
2023-03-21T06:05:45.691Z,953.77
2023-03-21T06:06:45.782Z,953.82
2023-03-21T06:07:45.757Z,953.82
2023-03-21T06:08:45.744Z,953.86
2023-03-21T06:09:45.726Z,953.85
2023-03-21T06:10:45.714Z,953.86
2023-03-21T06:11:45.712Z,953.85
2023-03-21T06:12:45.684Z,953.86
2023-03-21T06:13:45.665Z,953.89
2023-03-21T06:14:45.653Z,953.87
2023-03-21T06:15:45.668Z,953.88
2023-03-21T06:16:45.625Z,953.93
2023-03-21T06:17:45.608Z,953.86
2023-03-21T06:18:45.599Z,953.84
2023-03-21T06:19:45.579Z,953.86
2023-03-21T06:20:45.570Z,953.84
2023-03-21T06:21:45.573Z,953.92
2023-03-21T06:22:45.536Z,953.85
2023-03-21T06:23:45.523Z,953.87
2023-03-21T06:24:45.507Z,953.87
2023-03-21T06:25:45.491Z,953.86
2023-03-21T06:26:45.487Z,953.87
2023-03-21T06:27:45.467Z,953.84
2023-03-21T06:28:45.607Z,953.88
2023-03-21T06:29:45.595Z,953.88
2023-03-21T06:30:45.578Z,953.83
2023-03-21T06:31:45.629Z,953.79
2023-03-21T06:32:45.548Z,953.85
2023-03-21T06:33:45.550Z,953.81
2023-03-21T06:34:45.523Z,953.86
2023-03-21T06:35:45.576Z,953.86
2023-03-21T06:36:45.487Z,953.89
2023-03-21T06:37:45.503Z,953.88
2023-03-21T06:38:45.461Z,953.9
2023-03-21T06:39:45.447Z,953.89
2023-03-21T06:40:45.430Z,953.86
2023-03-21T06:41:45.419Z,953.9
2023-03-21T06:42:45.406Z,953.85
2023-03-21T06:43:45.395Z,953.86
2023-03-21T06:44:45.371Z,953.85
2023-03-21T06:45:45.361Z,953.87
2023-03-21T06:46:45.382Z,953.83
2023-03-21T06:47:45.416Z,953.84
2023-03-21T06:48:45.317Z,953.82
2023-03-21T06:49:45.303Z,953.77
2023-03-21T06:50:45.288Z,953.79
2023-03-21T06:51:45.273Z,953.85
2023-03-21T06:52:45.260Z,953.85
2023-03-21T06:53:45.272Z,953.88
2023-03-21T06:54:45.233Z,953.84
2023-03-21T06:55:45.220Z,953.87
2023-03-21T06:56:45.202Z,953.83
2023-03-21T06:57:45.197Z,953.85
2023-03-21T06:58:45.175Z,953.91
2023-03-21T06:59:45.165Z,953.88
2023-03-21T07:00:45.177Z,953.89
2023-03-21T07:01:45.135Z,953.91
2023-03-21T07:02:45.179Z,953.94
2023-03-21T07:03:45.108Z,953.94
2023-03-21T07:04:45.093Z,953.93
2023-03-21T07:05:45.082Z,953.93
2023-03-21T07:06:45.079Z,953.91
2023-03-21T07:07:45.054Z,953.93
2023-03-21T07:08:45.039Z,953.96
2023-03-21T07:09:45.054Z,954
2023-03-21T07:10:45.562Z,954
2023-03-21T07:11:45.002Z,954
2023-03-21T07:12:44.986Z,954.02
2023-03-21T07:13:44.972Z,953.97
2023-03-21T07:14:44.956Z,954.01
2023-03-21T07:15:44.949Z,954.03
2023-03-21T07:16:45.012Z,953.99
2023-03-21T07:17:44.917Z,954
2023-03-21T07:18:45.317Z,954.06
2023-03-21T07:19:45.029Z,954.04
2023-03-21T07:20:44.877Z,954.06
2023-03-21T07:21:44.861Z,954.04
2023-03-21T07:22:44.851Z,954.03
2023-03-21T07:23:44.835Z,954.04
2023-03-21T07:24:45.957Z,954.04
2023-03-21T07:25:44.862Z,954.02
2023-03-21T07:26:44.800Z,953.99
2023-03-21T07:27:44.780Z,953.99
2023-03-21T07:28:44.772Z,953.98
2023-03-21T07:29:44.757Z,953.98
2023-03-21T07:30:44.744Z,953.97
2023-03-21T07:31:44.775Z,953.98
2023-03-21T07:32:44.718Z,953.98
2023-03-21T07:33:44.728Z,953.93
2023-03-21T07:34:44.692Z,953.87
2023-03-21T07:35:44.711Z,953.87
2023-03-21T07:36:44.666Z,953.93
2023-03-21T07:37:44.651Z,953.92
2023-03-21T07:38:44.637Z,953.94
2023-03-21T07:39:44.624Z,953.9
2023-03-21T07:40:44.620Z,953.86
2023-03-21T07:41:44.621Z,953.89
2023-03-21T07:42:44.585Z,953.87
2023-03-21T07:43:44.575Z,953.87
2023-03-21T07:44:44.564Z,953.87
2023-03-21T07:45:44.567Z,953.83
2023-03-21T07:46:44.534Z,953.79
2023-03-21T07:47:44.563Z,953.76
2023-03-21T07:48:44.525Z,953.8
2023-03-21T07:49:44.494Z,953.8
2023-03-21T07:50:44.483Z,953.82
2023-03-21T07:51:44.471Z,953.86
2023-03-21T07:52:44.456Z,953.83
2023-03-21T07:53:44.443Z,953.84
2023-03-21T07:54:44.433Z,953.87
2023-03-21T07:55:45.035Z,953.86
2023-03-21T07:56:45.029Z,953.88
2023-03-21T07:57:45.053Z,953.83
2023-03-21T07:58:45.000Z,953.84
2023-03-21T07:59:44.984Z,953.8
2023-03-21T08:00:44.977Z,953.78
2023-03-21T08:01:44.962Z,953.77
2023-03-21T08:02:44.952Z,953.7
2023-03-21T08:03:44.987Z,953.73
2023-03-21T08:04:44.927Z,953.67
2023-03-21T08:05:44.912Z,953.71
2023-03-21T08:06:44.914Z,953.7
2023-03-21T08:07:44.894Z,953.73
2023-03-21T08:08:44.878Z,953.75
2023-03-21T08:09:44.872Z,953.74
2023-03-21T08:10:44.852Z,953.72
2023-03-21T08:11:44.843Z,953.75
2023-03-21T08:12:44.828Z,953.75
2023-03-21T08:13:44.842Z,953.76
2023-03-21T08:14:44.804Z,953.77
2023-03-21T08:15:44.802Z,953.8
2023-03-21T08:16:44.809Z,953.81
2023-03-21T08:17:45.385Z,953.87
2023-03-21T08:18:45.381Z,953.85
2023-03-21T08:19:45.368Z,953.86
2023-03-21T08:20:45.344Z,953.88
2023-03-21T08:21:45.390Z,953.9
2023-03-21T08:22:45.333Z,953.91
2023-03-21T08:23:45.309Z,953.86
2023-03-21T08:24:45.296Z,953.87
2023-03-21T08:25:45.286Z,953.85
2023-03-21T08:26:45.272Z,953.92
2023-03-21T08:27:45.262Z,953.88
2023-03-21T08:28:45.250Z,953.94
2023-03-21T08:29:45.265Z,953.89
2023-03-21T08:30:45.261Z,953.92
2023-03-21T08:31:45.220Z,953.93
2023-03-21T08:32:45.206Z,953.93
2023-03-21T08:33:45.204Z,953.98
2023-03-21T08:34:45.176Z,953.92
2023-03-21T08:35:45.445Z,953.95
2023-03-21T08:36:45.155Z,953.92
2023-03-21T08:37:45.148Z,953.96
2023-03-21T08:38:45.132Z,953.91
2023-03-21T08:39:45.205Z,953.94
2023-03-21T08:40:45.142Z,953.92
2023-03-21T08:41:45.117Z,953.96
2023-03-21T08:42:45.105Z,953.91
2023-03-21T08:43:45.092Z,953.84
2023-03-21T08:44:45.080Z,953.89
2023-03-21T08:45:45.094Z,953.89
2023-03-21T08:46:45.103Z,953.89
2023-03-21T08:47:45.110Z,953.9
2023-03-21T08:48:45.034Z,953.92
2023-03-21T08:49:45.023Z,953.9
2023-03-21T08:50:45.009Z,953.92
2023-03-21T08:51:44.999Z,953.94
2023-03-21T08:52:44.992Z,953.92
2023-03-21T08:53:44.975Z,953.96
2023-03-21T08:54:44.961Z,953.87
2023-03-21T08:55:44.950Z,953.93
2023-03-21T08:56:44.945Z,953.94
2023-03-21T08:57:44.928Z,953.99
2023-03-21T08:58:44.931Z,953.96
2023-03-21T08:59:44.911Z,953.96
2023-03-21T09:00:44.890Z,953.98
2023-03-21T09:01:45.063Z,953.91
2023-03-21T09:02:44.886Z,953.92
2023-03-21T09:03:44.857Z,953.96
2023-03-21T09:04:45.061Z,953.94
2023-03-21T09:05:44.833Z,953.93
2023-03-21T09:06:44.822Z,953.94
2023-03-21T09:07:44.816Z,953.99
2023-03-21T09:08:44.797Z,953.92
2023-03-21T09:09:47.713Z,953.94
2023-03-21T09:10:44.781Z,953.95
2023-03-21T09:11:44.797Z,953.94
2023-03-21T09:12:44.752Z,953.9
2023-03-21T09:13:44.738Z,953.9
2023-03-21T09:14:44.732Z,953.92
2023-03-21T09:15:44.743Z,953.96
2023-03-21T09:16:44.709Z,953.93
2023-03-21T09:17:44.720Z,953.91
2023-03-21T09:18:44.683Z,953.93
2023-03-21T09:19:44.670Z,953.95
2023-03-21T09:20:44.674Z,953.94
2023-03-21T09:21:44.648Z,953.88
2023-03-21T09:22:44.780Z,953.91
2023-03-21T09:23:44.789Z,953.87
2023-03-21T09:24:44.764Z,953.83
2023-03-21T09:25:44.748Z,953.83
2023-03-21T09:26:44.745Z,953.84
2023-03-21T09:27:44.729Z,953.85
2023-03-21T09:28:44.715Z,953.81
2023-03-21T09:29:44.718Z,953.8
2023-03-21T09:30:44.707Z,953.8
2023-03-21T09:31:44.713Z,953.82
2023-03-21T09:32:44.672Z,953.74
2023-03-21T09:33:44.699Z,953.75
2023-03-21T09:34:44.652Z,953.75
2023-03-21T09:35:44.672Z,953.72
2023-03-21T09:36:44.631Z,953.67
2023-03-21T09:37:44.617Z,953.67
2023-03-21T09:38:44.609Z,953.64
2023-03-21T09:39:44.601Z,953.67
2023-03-21T09:40:44.592Z,953.58
2023-03-21T09:41:44.585Z,953.54
2023-03-21T09:42:44.581Z,953.57
2023-03-21T09:43:44.571Z,953.54
2023-03-21T09:44:45.538Z,953.49
2023-03-21T09:45:45.525Z,953.48
2023-03-21T09:46:45.666Z,953.51
2023-03-21T09:47:45.652Z,953.53
2023-03-21T09:48:54.298Z,953.54
2023-03-21T09:49:45.632Z,953.5
2023-03-21T09:50:45.486Z,953.5
2023-03-21T09:51:45.461Z,953.53
2023-03-21T09:52:45.450Z,953.53
2023-03-21T09:53:45.443Z,953.53
2023-03-21T09:54:45.433Z,953.5
2023-03-21T09:55:45.420Z,953.47
2023-03-21T09:56:45.410Z,953.49
2023-03-21T09:57:45.398Z,953.43
2023-03-21T09:58:45.387Z,953.43
2023-03-21T09:59:45.395Z,953.43
2023-03-21T10:00:45.388Z,953.45
2023-03-21T10:01:45.430Z,953.41
2023-03-21T10:02:45.345Z,953.44
2023-03-21T10:03:45.339Z,953.48
2023-03-21T10:04:45.370Z,953.42
2023-03-21T10:05:45.980Z,953.43
2023-03-21T10:06:45.304Z,953.47
2023-03-21T10:07:45.299Z,953.49
2023-03-21T10:08:45.282Z,953.51
2023-03-21T10:09:45.274Z,953.51
2023-03-21T10:10:45.264Z,953.49
2023-03-21T10:11:45.255Z,953.47
2023-03-21T10:12:45.241Z,953.5
2023-03-21T10:13:45.232Z,953.44
2023-03-21T10:14:45.221Z,953.49
2023-03-21T10:15:45.215Z,953.51
2023-03-21T10:16:45.311Z,953.45
2023-03-21T10:17:45.194Z,953.45
2023-03-21T10:18:45.182Z,953.45
2023-03-21T10:19:45.175Z,953.48
2023-03-21T10:20:45.244Z,953.43
2023-03-21T10:22:00.084Z,953.46
2023-03-21T10:22:45.143Z,953.46
2023-03-21T10:23:45.133Z,953.44
2023-03-21T10:24:45.133Z,953.43
2023-03-21T10:25:45.148Z,953.39
2023-03-21T10:26:45.128Z,953.44
2023-03-21T10:27:45.106Z,953.41
2023-03-21T10:28:52.684Z,953.38
2023-03-21T10:29:45.085Z,953.33
2023-03-21T10:30:45.061Z,953.4
2023-03-21T10:31:45.135Z,953.41
2023-03-21T10:32:45.071Z,953.36
2023-03-21T10:33:45.036Z,953.33
2023-03-21T10:34:45.032Z,953.35
2023-03-21T10:35:45.034Z,953.36
2023-03-21T10:36:45.006Z,953.37
2023-03-21T10:37:45.020Z,953.32
2023-03-21T10:38:44.986Z,953.36
2023-03-21T10:39:44.982Z,953.32
2023-03-21T10:40:44.969Z,953.3
2023-03-21T10:41:44.960Z,953.35
2023-03-21T10:42:44.954Z,953.31
2023-03-21T10:43:44.940Z,953.32
2023-03-21T10:44:44.932Z,953.25
2023-03-21T10:45:44.958Z,953.19
2023-03-21T10:46:45.097Z,953.22
2023-03-21T10:47:45.147Z,953.25
2023-03-21T10:48:44.977Z,953.24
2023-03-21T10:50:06.132Z,953.24
2023-03-21T10:50:44.922Z,953.22
2023-03-21T10:51:46.232Z,953.24
2023-03-21T10:52:44.857Z,953.23
2023-03-21T10:53:44.937Z,953.25
2023-03-21T10:54:44.843Z,953.21
2023-03-21T10:55:44.828Z,953.2
2023-03-21T10:56:44.821Z,953.19
2023-03-21T10:57:44.810Z,953.16
2023-03-21T10:58:44.801Z,953.16
2023-03-21T10:59:44.790Z,953.23
2023-03-21T11:00:44.819Z,953.22
2023-03-21T11:01:44.828Z,953.19
2023-03-21T11:02:44.840Z,953.14
2023-03-21T11:03:44.759Z,953.2
2023-03-21T11:04:44.749Z,953.15
2023-03-21T11:05:44.771Z,953.16
2023-03-21T11:06:44.751Z,953.11
2023-03-21T11:07:44.722Z,953.14
2023-03-21T11:08:44.716Z,953.12
2023-03-21T11:09:44.735Z,953.12
2023-03-21T11:10:44.702Z,953.11
2023-03-21T11:11:44.690Z,953.16
2023-03-21T11:12:44.685Z,953.1
2023-03-21T11:13:44.673Z,953.08
2023-03-21T11:14:44.670Z,953.04
2023-03-21T11:15:44.662Z,953.06
2023-03-21T11:16:44.733Z,953.06
2023-03-21T11:17:44.644Z,953.06
2023-03-21T11:18:44.637Z,953.05
2023-03-21T11:19:44.627Z,953.01
2023-03-21T11:20:44.620Z,953.07
2023-03-21T11:21:44.611Z,953.07
2023-03-21T11:22:44.605Z,953.12
2023-03-21T11:23:44.604Z,953.06
2023-03-21T11:24:44.591Z,953.05
2023-03-21T11:25:44.603Z,953.03
2023-03-21T11:26:44.572Z,953.02
2023-03-21T11:27:44.562Z,952.99
2023-03-21T11:28:44.555Z,952.99
2023-03-21T11:29:44.546Z,952.96
2023-03-21T11:30:44.576Z,952.97
2023-03-21T11:31:44.532Z,952.99
2023-03-21T11:32:44.527Z,953
2023-03-21T11:33:44.521Z,952.99
2023-03-21T11:34:44.508Z,952.99
2023-03-21T11:35:44.517Z,953.02
2023-03-21T11:36:44.489Z,952.99
2023-03-21T11:37:44.483Z,952.96
2023-03-21T11:38:44.473Z,952.97
2023-03-21T11:39:44.471Z,953
2023-03-21T11:40:44.456Z,952.96
2023-03-21T11:41:44.477Z,952.93
2023-03-21T11:42:44.439Z,952.96
2023-03-21T11:43:44.484Z,952.93
2023-03-21T11:44:44.471Z,952.94
2023-03-21T11:45:44.464Z,952.9
2023-03-21T11:46:44.409Z,952.95
2023-03-21T11:47:44.444Z,952.89
2023-03-21T11:48:44.398Z,952.88
2023-03-21T11:49:44.383Z,952.91
2023-03-21T11:50:44.385Z,952.9
2023-03-21T11:51:44.373Z,952.87
2023-03-21T11:52:44.371Z,952.81
2023-03-21T11:53:44.350Z,952.83
2023-03-21T11:54:44.339Z,952.86
2023-03-21T11:55:44.331Z,952.84
2023-03-21T11:56:44.323Z,952.86
2023-03-21T11:57:44.352Z,952.8
2023-03-21T11:58:45.112Z,952.81
2023-03-21T11:59:44.298Z,952.77
2023-03-21T12:00:44.288Z,952.81
2023-03-21T12:01:44.283Z,952.75
2023-03-21T12:02:44.351Z,952.71
2023-03-21T12:03:48.258Z,952.71
2023-03-21T12:04:44.305Z,952.69
2023-03-21T12:05:44.256Z,952.68
2023-03-21T12:06:44.239Z,952.66
2023-03-21T12:07:44.233Z,952.61
2023-03-21T12:08:44.228Z,952.63
2023-03-21T12:09:44.217Z,952.61
2023-03-21T12:10:44.215Z,952.62
2023-03-21T12:11:44.204Z,952.61
2023-03-21T12:12:44.191Z,952.62
2023-03-21T12:13:44.211Z,952.58
2023-03-21T12:14:44.176Z,952.57
2023-03-21T12:15:44.240Z,952.55
2023-03-21T12:16:44.172Z,952.52
2023-03-21T12:17:44.158Z,952.47
2023-03-21T12:18:44.155Z,952.49
2023-03-21T12:19:44.142Z,952.48
2023-03-21T12:20:44.129Z,952.47
2023-03-21T12:21:44.131Z,952.5
2023-03-21T12:22:44.123Z,952.46
2023-03-21T12:23:44.107Z,952.46
2023-03-21T12:24:44.098Z,952.43
2023-03-21T12:25:44.092Z,952.41
2023-03-21T12:26:44.087Z,952.4
2023-03-21T12:27:44.072Z,952.4
2023-03-21T12:28:44.069Z,952.43
2023-03-21T12:29:44.184Z,952.4
2023-03-21T12:30:44.053Z,952.4
2023-03-21T12:31:44.094Z,952.4
2023-03-21T12:32:44.033Z,952.38
2023-03-21T12:33:44.029Z,952.39
2023-03-21T12:34:44.038Z,952.35
2023-03-21T12:35:44.023Z,952.29
2023-03-21T12:36:44.006Z,952.29
2023-03-21T12:37:43.990Z,952.27
2023-03-21T12:38:43.989Z,952.22
2023-03-21T12:39:43.979Z,952.25
2023-03-21T12:40:43.975Z,952.24
2023-03-21T12:41:43.961Z,952.25
2023-03-21T12:42:43.954Z,952.25
2023-03-21T12:43:43.947Z,952.2
2023-03-21T12:44:43.941Z,952.22
2023-03-21T12:45:47.494Z,952.2
2023-03-21T12:46:43.945Z,952.19
2023-03-21T12:47:43.949Z,952.19
2023-03-21T12:48:43.907Z,952.14
2023-03-21T12:49:43.901Z,952.16
2023-03-21T12:50:43.905Z,952.16
2023-03-21T12:51:43.886Z,952.13
2023-03-21T12:52:43.884Z,952.11
2023-03-21T12:53:43.876Z,952.13
2023-03-21T12:54:43.868Z,952.13
2023-03-21T12:55:43.860Z,952.09
2023-03-21T12:56:43.850Z,952.1
2023-03-21T12:57:47.853Z,952.09
2023-03-21T12:58:43.836Z,952.03
2023-03-21T12:59:43.829Z,952.06
2023-03-21T13:00:43.883Z,952.04
2023-03-21T13:01:43.984Z,952
2023-03-21T13:02:43.808Z,951.99
2023-03-21T13:03:44.029Z,952.01
2023-03-21T13:04:43.795Z,952.05
2023-03-21T13:05:43.788Z,952.05
2023-03-21T13:06:43.778Z,952.04
2023-03-21T13:07:43.768Z,951.99
2023-03-21T13:08:43.778Z,952.05
2023-03-21T13:09:43.755Z,951.97
2023-03-21T13:10:43.749Z,951.97
2023-03-21T13:11:43.740Z,951.93
2023-03-21T13:12:43.742Z,951.99
2023-03-21T13:13:43.726Z,951.99
2023-03-21T13:14:43.725Z,951.97
2023-03-21T13:15:43.715Z,951.96
2023-03-21T13:16:43.766Z,951.93
2023-03-21T13:17:43.818Z,951.92
2023-03-21T13:18:43.688Z,951.95
2023-03-21T13:19:43.697Z,951.96
2023-03-21T13:20:43.688Z,951.97
2023-03-21T13:21:43.672Z,951.93
2023-03-21T13:22:43.661Z,951.93
2023-03-21T13:23:43.658Z,951.89
2023-03-21T13:24:43.650Z,951.88
2023-03-21T13:25:43.644Z,951.89
2023-03-21T13:26:43.642Z,951.87
2023-03-21T13:27:43.628Z,951.92
2023-03-21T13:28:43.619Z,951.91
2023-03-21T13:29:43.615Z,951.86
2023-03-21T13:30:43.706Z,951.84
2023-03-21T13:31:51.587Z,951.87
2023-03-21T13:32:43.678Z,951.88
2023-03-21T13:33:43.611Z,951.86
2023-03-21T13:34:43.577Z,951.88
2023-03-21T13:35:43.594Z,951.84
2023-03-21T13:36:43.565Z,951.85
2023-03-21T13:37:43.570Z,951.83
2023-03-21T13:38:43.553Z,951.85
2023-03-21T13:39:43.575Z,951.87
2023-03-21T13:40:43.550Z,951.9
2023-03-21T13:41:43.533Z,951.82
2023-03-21T13:42:43.556Z,951.81
2023-03-21T13:43:43.538Z,951.83
2023-03-21T13:44:43.518Z,951.83
2023-03-21T13:45:43.547Z,951.81
2023-03-21T13:46:53.271Z,951.83
2023-03-21T13:47:43.503Z,951.79
2023-03-21T13:48:49.356Z,951.82
2023-03-21T13:49:43.604Z,951.83
2023-03-21T13:50:43.475Z,951.82
2023-03-21T13:51:43.467Z,951.84
2023-03-21T13:52:43.460Z,951.83
2023-03-21T13:53:43.456Z,951.78
2023-03-21T13:54:43.447Z,951.82
2023-03-21T13:55:43.442Z,951.81
2023-03-21T13:56:43.433Z,951.8
2023-03-21T13:57:43.428Z,951.78
2023-03-21T13:58:43.428Z,951.75
2023-03-21T13:59:43.423Z,951.78
2023-03-21T14:00:43.406Z,951.7
2023-03-21T14:01:43.435Z,951.73
2023-03-21T14:02:43.390Z,951.73
2023-03-21T14:03:43.385Z,951.72
2023-03-21T14:05:00.127Z,951.71
2023-03-21T14:05:43.519Z,951.72
2023-03-21T14:06:43.442Z,951.73
2023-03-21T14:07:43.358Z,951.67
2023-03-21T14:08:43.356Z,951.69
2023-03-21T14:09:43.344Z,951.69
2023-03-21T14:10:43.335Z,951.64
2023-03-21T14:11:46.644Z,951.68
2023-03-21T14:12:43.323Z,951.64
2023-03-21T14:13:50.660Z,951.65
2023-03-21T14:14:43.311Z,951.66
2023-03-21T14:15:49.647Z,951.63
2023-03-21T14:16:43.297Z,951.59
2023-03-21T14:17:43.290Z,951.56
2023-03-21T14:18:53.298Z,951.52
2023-03-21T14:19:43.274Z,951.54
2023-03-21T14:20:43.267Z,951.54
2023-03-21T14:21:43.381Z,951.52
2023-03-21T14:22:43.262Z,951.56
2023-03-21T14:23:43.245Z,951.53
2023-03-21T14:24:43.246Z,951.52
2023-03-21T14:25:47.413Z,951.53
2023-03-21T14:26:43.248Z,951.44
2023-03-21T14:27:43.217Z,951.44
2023-03-21T14:28:43.212Z,951.47
2023-03-21T14:29:43.202Z,951.44
2023-03-21T14:30:43.276Z,951.41
2023-03-21T14:31:43.186Z,951.37
2023-03-21T14:32:43.182Z,951.36
2023-03-21T14:33:43.172Z,951.37
2023-03-21T14:34:43.522Z,951.38
2023-03-21T14:35:43.245Z,951.34
2023-03-21T14:36:45.877Z,951.31
2023-03-21T14:37:43.292Z,951.33
2023-03-21T14:38:43.139Z,951.28
2023-03-21T14:39:43.127Z,951.29
2023-03-21T14:40:43.127Z,951.32
2023-03-21T14:41:43.111Z,951.31
2023-03-21T14:42:43.110Z,951.33
2023-03-21T14:43:43.096Z,951.29
2023-03-21T14:44:58.612Z,951.36
2023-03-21T14:45:43.081Z,951.37
2023-03-21T14:46:43.127Z,951.37
2023-03-21T14:47:43.123Z,951.36
2023-03-21T14:48:43.059Z,951.33
2023-03-21T14:49:43.055Z,951.4
2023-03-21T14:50:43.041Z,951.39
2023-03-21T14:51:43.063Z,951.33
2023-03-21T14:52:43.042Z,951.36
2023-03-21T14:53:43.136Z,951.37
2023-03-21T14:54:43.021Z,951.37
2023-03-21T14:55:43.007Z,951.35
2023-03-21T14:56:42.996Z,951.35
2023-03-21T14:57:42.990Z,951.31
2023-03-21T14:58:42.978Z,951.31
2023-03-21T14:59:42.969Z,951.31
2023-03-21T15:00:42.982Z,951.34
2023-03-21T15:01:43.011Z,951.3
2023-03-21T15:02:43.014Z,951.27
2023-03-21T15:03:42.942Z,951.24
2023-03-21T15:04:42.953Z,951.23
2023-03-21T15:05:42.920Z,951.23
2023-03-21T15:06:42.908Z,951.22
2023-03-21T15:07:42.900Z,951.23
2023-03-21T15:08:42.891Z,951.24
2023-03-21T15:09:43.002Z,951.24
2023-03-21T15:10:42.897Z,951.25
2023-03-21T15:11:42.869Z,951.26
2023-03-21T15:12:42.871Z,951.21
2023-03-21T15:13:42.863Z,951.22
2023-03-21T15:14:43.854Z,951.19
2023-03-21T15:15:43.241Z,951.22
2023-03-21T15:16:42.826Z,951.25
2023-03-21T15:17:42.820Z,951.2
2023-03-21T15:18:42.836Z,951.25
2023-03-21T15:19:42.806Z,951.21
2023-03-21T15:20:42.805Z,951.2
2023-03-21T15:21:42.789Z,951.21
2023-03-21T15:22:42.775Z,951.19
2023-03-21T15:23:42.770Z,951.21
2023-03-21T15:24:42.809Z,951.21
2023-03-21T15:25:42.776Z,951.2
2023-03-21T15:26:42.756Z,951.23
2023-03-21T15:27:42.736Z,951.21
2023-03-21T15:28:42.726Z,951.13
2023-03-21T15:29:42.715Z,951.17
2023-03-21T15:30:42.705Z,951.17
2023-03-21T15:31:42.794Z,951.16
2023-03-21T15:32:42.704Z,951.17
2023-03-21T15:33:42.685Z,951.19
2023-03-21T15:34:42.701Z,951.15
2023-03-21T15:35:43.065Z,951.14
2023-03-21T15:36:42.653Z,951.14
2023-03-21T15:37:42.659Z,951.18
2023-03-21T15:38:42.646Z,951.17
2023-03-21T15:39:42.628Z,951.18
2023-03-21T15:40:42.619Z,951.14
2023-03-21T15:41:42.732Z,951.12
2023-03-21T15:42:42.598Z,951.1
2023-03-21T15:43:42.601Z,951.13
2023-03-21T15:44:42.581Z,951.11
2023-03-21T15:45:42.577Z,951.12
2023-03-21T15:46:42.632Z,951.08
2023-03-21T15:47:42.662Z,951.11
2023-03-21T15:48:42.558Z,951.08
2023-03-21T15:49:42.540Z,951.1
2023-03-21T15:50:42.537Z,951.07
2023-03-21T15:51:42.548Z,951.05
2023-03-21T15:52:42.512Z,951.07
2023-03-21T15:53:42.502Z,951.07
2023-03-21T15:54:42.523Z,951.03
2023-03-21T15:55:42.490Z,951.02
2023-03-21T15:56:42.503Z,951.05
2023-03-21T15:57:42.627Z,950.99
2023-03-21T15:58:42.461Z,950.98
2023-03-21T15:59:42.480Z,951.01
2023-03-21T16:00:42.761Z,950.96
2023-03-21T16:01:42.475Z,950.99
2023-03-21T16:02:42.429Z,950.95
2023-03-21T16:03:42.413Z,951.01
2023-03-21T16:04:42.404Z,950.98
2023-03-21T16:05:42.393Z,951.01
2023-03-21T16:06:42.384Z,951
2023-03-21T16:07:42.374Z,950.98
2023-03-21T16:08:42.370Z,951
2023-03-21T16:09:42.373Z,950.97
2023-03-21T16:10:42.348Z,951.01
2023-03-21T16:11:42.340Z,950.98
2023-03-21T16:12:42.329Z,950.97
2023-03-21T16:13:42.441Z,950.99
2023-03-21T16:14:42.312Z,950.97
2023-03-21T16:15:42.392Z,950.95
2023-03-21T16:16:42.407Z,950.95
2023-03-21T16:17:42.284Z,950.92
2023-03-21T16:18:42.274Z,950.97
2023-03-21T16:19:42.263Z,950.98
2023-03-21T16:20:42.277Z,950.94
2023-03-21T16:21:42.242Z,950.94
2023-03-21T16:22:42.236Z,950.94
2023-03-21T16:23:42.231Z,950.96
2023-03-21T16:24:42.218Z,950.96
2023-03-21T16:25:42.208Z,950.98
2023-03-21T16:26:42.197Z,950.98
2023-03-21T16:27:42.195Z,950.97
2023-03-21T16:28:42.179Z,951
2023-03-21T16:29:42.318Z,951.01
2023-03-21T16:30:42.189Z,951.01
2023-03-21T16:31:42.179Z,951.01
2023-03-21T16:32:42.144Z,951.01
2023-03-21T16:33:42.131Z,951.07
2023-03-21T16:34:42.128Z,951.09
2023-03-21T16:35:42.177Z,951.03
2023-03-21T16:36:42.103Z,951.05
2023-03-21T16:37:42.099Z,951.1
2023-03-21T16:38:42.086Z,951.06
2023-03-21T16:39:42.082Z,951.1
2023-03-21T16:40:42.626Z,951.1
2023-03-21T16:41:42.056Z,951.09
2023-03-21T16:42:42.046Z,951.14
2023-03-21T16:43:42.047Z,951.15
2023-03-21T16:44:42.025Z,951.13
2023-03-21T16:45:42.133Z,951.13
2023-03-21T16:46:42.010Z,951.16
2023-03-21T16:47:42.059Z,951.15
2023-03-21T16:48:41.987Z,951.15
2023-03-21T16:49:41.979Z,951.18
2023-03-21T16:50:41.984Z,951.21
2023-03-21T16:51:41.961Z,951.22
2023-03-21T16:52:41.953Z,951.26
2023-03-21T16:53:41.958Z,951.33
2023-03-21T16:54:41.942Z,951.29
2023-03-21T16:55:41.922Z,951.31
2023-03-21T16:56:41.910Z,951.36
2023-03-21T16:57:41.900Z,951.33
2023-03-21T16:58:41.891Z,951.33
2023-03-21T16:59:41.885Z,951.27
2023-03-21T17:00:41.871Z,951.28
2023-03-21T17:01:41.951Z,951.26
2023-03-21T17:02:41.856Z,951.32
2023-03-21T17:03:41.973Z,951.27
2023-03-21T17:04:41.832Z,951.27
2023-03-21T17:05:41.830Z,951.25
2023-03-21T17:06:41.808Z,951.27
2023-03-21T17:07:41.801Z,951.28
2023-03-21T17:08:41.788Z,951.27
2023-03-21T17:09:41.779Z,951.3